createdAt,value
2018-03-14T00:01:21.288Z,80.14
2018-03-14T00:03:49.057Z,79.09
2018-03-14T00:06:16.592Z,79.35
2018-03-14T00:08:44.118Z,80.35
2018-03-14T00:11:11.674Z,79.63
2018-03-14T00:13:39.204Z,79.87
2018-03-14T00:16:07.061Z,79.68
2018-03-14T00:18:34.586Z,79.50
2018-03-14T00:21:02.129Z,79.66
2018-03-14T00:23:29.683Z,80.05
2018-03-14T00:25:57.201Z,79.89
2018-03-14T00:28:24.733Z,79.69
2018-03-14T00:30:52.255Z,79.26
2018-03-14T00:33:19.775Z,79.58
2018-03-14T00:35:47.333Z,79.86
2018-03-14T00:38:14.875Z,79.83
2018-03-14T00:40:42.393Z,79.00
2018-03-14T00:43:09.933Z,78.98
2018-03-14T00:45:37.799Z,78.98
2018-03-14T00:48:05.661Z,78.82
2018-03-14T00:50:33.162Z,78.72
2018-03-14T00:53:00.669Z,78.50
2018-03-14T00:55:28.209Z,78.15
2018-03-14T00:57:55.731Z,78.17
2018-03-14T01:00:23.279Z,78.91
2018-03-14T01:02:50.798Z,78.77
2018-03-14T01:05:18.689Z,78.90
2018-03-14T01:07:46.228Z,78.11
2018-03-14T01:10:13.768Z,77.57
2018-03-14T01:12:41.333Z,77.74
2018-03-14T01:15:08.857Z,77.86
2018-03-14T01:17:36.388Z,77.83
2018-03-14T01:20:03.930Z,77.76
2018-03-14T01:22:31.452Z,77.72
2018-03-14T01:25:00.228Z,78.02
2018-03-14T01:27:27.784Z,77.89
2018-03-14T01:29:55.624Z,77.97
2018-03-14T01:32:23.191Z,78.11
2018-03-14T01:34:50.704Z,78.51
2018-03-14T01:37:18.218Z,78.72
2018-03-14T01:39:45.775Z,78.84
2018-03-14T01:42:13.387Z,79.07
2018-03-14T01:44:41.196Z,79.19
2018-03-14T01:47:09.065Z,79.06
2018-03-14T01:49:36.828Z,78.81
2018-03-14T01:52:04.591Z,78.77
2018-03-14T01:54:32.183Z,78.52
2018-03-14T01:56:59.687Z,79.67
2018-03-14T01:59:27.206Z,79.76
2018-03-14T02:01:54.772Z,79.68
2018-03-14T02:04:22.606Z,79.98
2018-03-14T02:06:50.159Z,79.09
2018-03-14T02:09:17.928Z,78.85
2018-03-14T02:11:45.507Z,78.66
2018-03-14T02:14:13.091Z,78.26
2018-03-14T02:16:40.643Z,78.07
2018-03-14T02:19:08.291Z,78.16
2018-03-14T02:21:35.809Z,79.02
2018-03-14T02:24:03.323Z,79.20
2018-03-14T02:26:30.866Z,78.64
2018-03-14T02:28:58.374Z,77.98
2018-03-14T02:31:26.152Z,78.55
2018-03-14T02:33:53.672Z,77.97
2018-03-14T02:39:26.276Z,77.44
2018-03-14T02:41:54.103Z,77.32
2018-03-14T02:44:21.872Z,77.24
2018-03-14T02:46:49.378Z,77.56
2018-03-14T02:49:16.896Z,77.68
2018-03-14T02:51:44.472Z,77.73
2018-03-14T02:54:11.985Z,77.83
2018-03-14T02:56:39.489Z,77.35
2018-03-14T02:59:06.974Z,77.47
2018-03-14T03:01:34.480Z,77.46
2018-03-14T03:04:01.971Z,77.41
2018-03-14T03:06:29.501Z,77.33
2018-03-14T03:08:57.013Z,77.91
2018-03-14T03:11:24.527Z,77.98
2018-03-14T03:13:52.035Z,77.99
2018-03-14T03:16:19.543Z,78.15
2018-03-14T03:18:47.064Z,77.94
2018-03-14T03:21:14.622Z,77.83
2018-03-14T03:23:42.121Z,77.96
2018-03-14T03:26:09.650Z,78.32
2018-03-14T03:28:37.144Z,78.66
2018-03-14T03:31:04.684Z,77.88
2018-03-14T03:33:32.232Z,78.08
2018-03-14T03:36:00.033Z,78.63
2018-03-14T03:38:27.590Z,79.05
2018-03-14T03:40:55.107Z,79.14
2018-03-14T03:43:22.641Z,79.29
2018-03-14T03:45:50.146Z,78.95
2018-03-14T03:48:17.634Z,78.83
2018-03-14T03:50:45.157Z,79.18
2018-03-14T03:53:12.682Z,78.89
2018-03-14T03:55:40.236Z,78.90
2018-03-14T03:58:07.750Z,79.07
2018-03-14T04:00:35.246Z,79.05
2018-03-14T04:03:02.769Z,79.17
2018-03-14T04:05:30.315Z,79.01
2018-03-14T04:07:58.116Z,79.24
2018-03-14T04:10:25.993Z,79.39
2018-03-14T04:12:54.433Z,79.28
2018-03-14T04:15:21.950Z,79.45
2018-03-14T04:17:49.443Z,79.42
2018-03-14T04:20:17.254Z,79.74
2018-03-14T04:22:44.756Z,79.75
2018-03-14T04:25:12.263Z,79.55
2018-03-14T04:27:39.783Z,79.94
2018-03-14T04:30:07.287Z,80.17
2018-03-14T04:32:35.054Z,79.93
2018-03-14T04:35:02.574Z,79.58
2018-03-14T04:37:30.081Z,79.25
2018-03-14T04:39:57.838Z,79.27
2018-03-14T04:42:25.343Z,78.85
2018-03-14T04:44:52.865Z,78.76
2018-03-14T04:47:20.627Z,78.39
2018-03-14T04:49:48.131Z,78.33
2018-03-14T04:52:15.667Z,78.21
2018-03-14T04:54:43.161Z,78.60
2018-03-14T04:57:10.718Z,79.02
2018-03-14T04:59:38.218Z,79.19
2018-03-14T05:02:05.720Z,78.86
2018-03-14T05:04:33.560Z,78.64
2018-03-14T05:07:01.176Z,78.61
2018-03-14T05:09:28.705Z,78.93
2018-03-14T05:11:56.231Z,79.11
2018-03-14T05:14:23.727Z,79.34
2018-03-14T05:16:51.555Z,78.30
2018-03-14T05:19:19.325Z,78.29
2018-03-14T05:21:46.857Z,78.01
2018-03-14T05:24:14.364Z,77.87
2018-03-14T05:26:42.118Z,77.56
2018-03-14T05:29:09.648Z,77.13
2018-03-14T05:31:37.177Z,77.36
2018-03-14T05:34:04.703Z,76.93
2018-03-14T05:36:32.195Z,77.08
2018-03-14T05:38:59.719Z,77.36
2018-03-14T05:41:27.260Z,77.41
2018-03-14T05:43:54.791Z,77.35
2018-03-14T05:46:22.335Z,77.91
2018-03-14T05:48:49.846Z,77.72
2018-03-14T05:51:17.615Z,77.67
2018-03-14T05:53:45.168Z,78.27
2018-03-14T05:56:12.946Z,77.71
2018-03-14T05:58:40.527Z,77.64
2018-03-14T06:01:08.035Z,77.63
2018-03-14T06:03:35.529Z,77.62
2018-03-14T06:06:03.082Z,77.31
2018-03-14T06:08:30.610Z,77.76
2018-03-14T06:10:58.151Z,77.74
2018-03-14T06:13:25.663Z,77.39
2018-03-14T06:15:53.167Z,77.15
2018-03-14T06:18:20.714Z,77.54
2018-03-14T06:20:48.224Z,77.54
2018-03-14T06:23:16.110Z,76.94
2018-03-14T06:25:43.613Z,76.59
2018-03-14T06:28:11.163Z,76.49
2018-03-14T06:30:38.683Z,77.31
2018-03-14T06:33:06.264Z,77.09
2018-03-14T06:35:33.871Z,77.22
2018-03-14T06:38:01.401Z,76.67
2018-03-14T06:40:28.894Z,77.27
2018-03-14T06:42:56.417Z,76.72
2018-03-14T06:45:24.164Z,77.04
2018-03-14T06:47:51.751Z,76.46
2018-03-14T06:50:19.483Z,77.31
2018-03-14T06:52:47.025Z,77.36
2018-03-14T06:55:14.812Z,76.95
2018-03-14T06:57:42.677Z,77.42
2018-03-14T07:00:21.964Z,77.59
2018-03-14T07:02:49.601Z,77.84
2018-03-14T07:05:29.122Z,77.47
2018-03-14T07:07:56.878Z,76.56
2018-03-14T07:10:24.431Z,77.10
2018-03-14T07:12:51.968Z,77.63
2018-03-14T07:15:19.485Z,76.78
2018-03-14T07:17:47.048Z,76.74
2018-03-14T07:20:14.593Z,76.61
2018-03-14T07:22:42.104Z,76.45
2018-03-14T07:25:09.683Z,76.53
2018-03-14T07:27:37.317Z,76.70
2018-03-14T07:30:04.883Z,76.59
2018-03-14T07:32:32.404Z,76.63
2018-03-14T07:34:59.911Z,77.49
2018-03-14T07:37:27.453Z,77.38
2018-03-14T07:39:54.971Z,77.41
2018-03-14T07:42:22.517Z,77.51
2018-03-14T07:44:50.028Z,77.35
2018-03-14T07:47:17.572Z,77.96
2018-03-14T07:49:45.423Z,78.54
2018-03-14T07:52:12.935Z,78.54
2018-03-14T07:54:40.480Z,78.93
2018-03-14T07:57:07.998Z,78.14
2018-03-14T07:59:35.484Z,79.41
2018-03-14T08:02:03.018Z,79.23
2018-03-14T08:04:30.546Z,79.43
2018-03-14T08:06:58.251Z,79.62
2018-03-14T08:09:25.785Z,79.29
2018-03-14T08:11:53.346Z,80.54
2018-03-14T08:14:20.888Z,79.84
2018-03-14T08:16:48.454Z,79.44
2018-03-14T08:19:16.012Z,79.76
2018-03-14T08:21:43.534Z,80.79
2018-03-14T08:24:11.100Z,80.19
2018-03-14T08:26:38.685Z,79.97
2018-03-14T08:29:06.915Z,80.73
2018-03-14T08:31:34.459Z,80.72
2018-03-14T08:34:02.107Z,79.91
2018-03-14T08:36:29.631Z,79.97
2018-03-14T08:38:57.157Z,79.37
2018-03-14T08:41:24.820Z,79.40
2018-03-14T08:43:52.362Z,79.49
2018-03-14T08:46:19.879Z,79.56
2018-03-14T08:48:47.803Z,80.07
2018-03-14T08:51:15.528Z,79.81
2018-03-14T08:53:43.071Z,79.45
2018-03-14T08:56:10.607Z,79.73
2018-03-14T08:58:38.151Z,78.06
2018-03-14T09:01:05.889Z,78.30
2018-03-14T09:03:33.408Z,78.99
2018-03-14T09:06:01.505Z,77.70
2018-03-14T09:08:29.028Z,78.14
2018-03-14T09:10:56.633Z,77.29
2018-03-14T09:13:24.796Z,77.00
2018-03-14T09:15:52.655Z,76.81
2018-03-14T09:18:21.256Z,76.33
2018-03-14T09:20:48.845Z,76.36
2018-03-14T09:23:16.433Z,77.08
2018-03-14T09:25:44.006Z,75.61
2018-03-14T09:28:11.530Z,76.47
2018-03-14T09:30:40.070Z,76.77
2018-03-14T09:33:07.909Z,76.31
2018-03-14T09:35:35.542Z,75.51
2018-03-14T09:38:03.057Z,74.61
2018-03-14T09:40:30.604Z,74.28
2018-03-14T09:42:58.888Z,74.23
2018-03-14T09:45:27.115Z,72.69
2018-03-14T09:47:55.304Z,73.37
2018-03-14T09:50:22.871Z,72.63
2018-03-14T09:52:50.513Z,72.00
2018-03-14T09:55:18.096Z,71.07
2018-03-14T09:57:45.680Z,71.42
2018-03-14T10:00:14.971Z,72.16
2018-03-14T10:02:42.702Z,72.27
2018-03-14T10:05:10.257Z,72.46
2018-03-14T10:07:38.054Z,72.89
2018-03-14T10:10:05.632Z,72.23
2018-03-14T10:12:34.393Z,73.08
2018-03-14T10:15:01.907Z,72.92
2018-03-14T10:17:29.487Z,72.85
2018-03-14T10:19:57.215Z,73.03
2018-03-14T10:22:24.729Z,74.07
2018-03-14T10:24:52.308Z,73.12
2018-03-14T10:27:19.835Z,72.72
2018-03-14T10:29:47.363Z,72.71
2018-03-14T10:32:15.218Z,72.39
2018-03-14T10:34:42.889Z,71.80
2018-03-14T10:37:11.779Z,70.95
2018-03-14T10:39:39.415Z,70.99
2018-03-14T10:42:07.246Z,71.16
2018-03-14T10:44:34.955Z,71.58
2018-03-14T10:47:02.526Z,72.19
2018-03-14T10:49:30.155Z,72.04
2018-03-14T10:51:57.826Z,72.37
2018-03-14T10:54:26.295Z,72.97
2018-03-14T10:56:53.894Z,73.81
2018-03-14T10:59:21.413Z,73.94
2018-03-14T11:01:48.952Z,73.90
2018-03-14T11:04:16.474Z,74.11
2018-03-14T11:06:43.980Z,74.58
2018-03-14T11:09:11.515Z,74.26
2018-03-14T11:11:39.022Z,73.66
2018-03-14T11:14:06.895Z,74.00
2018-03-14T11:16:35.102Z,73.66
2018-03-14T11:19:02.603Z,74.16
2018-03-14T11:21:30.263Z,74.38
2018-03-14T11:23:58.809Z,74.24
2018-03-14T11:26:26.664Z,74.55
2018-03-14T11:28:54.204Z,74.53
2018-03-14T11:31:21.732Z,74.40
2018-03-14T11:33:49.305Z,75.05
2018-03-14T11:36:17.144Z,75.88
2018-03-14T11:38:44.812Z,75.61
2018-03-14T11:41:12.353Z,75.54
2018-03-14T11:43:39.913Z,75.53
2018-03-14T11:46:07.455Z,76.94
2018-03-14T11:48:34.985Z,77.34
2018-03-14T11:51:02.514Z,77.66
2018-03-14T11:53:30.042Z,77.29
2018-03-14T11:55:57.560Z,76.73
2018-03-14T11:58:25.109Z,75.35
2018-03-14T12:00:52.641Z,75.91
2018-03-14T12:03:20.561Z,75.89
2018-03-14T12:05:48.430Z,76.05
2018-03-14T12:08:15.939Z,76.05
2018-03-14T12:10:43.500Z,75.51
2018-03-14T12:13:11.986Z,75.18
2018-03-14T12:15:39.484Z,74.89
2018-03-14T12:18:07.165Z,74.31
2018-03-14T12:20:34.668Z,74.54
2018-03-14T12:23:02.199Z,74.35
2018-03-14T12:25:29.732Z,73.86
2018-03-14T12:27:57.304Z,73.38
2018-03-14T12:30:24.906Z,73.82
2018-03-14T12:32:52.549Z,73.64
2018-03-14T12:35:20.316Z,73.02
2018-03-14T12:37:48.389Z,73.83
2018-03-14T12:40:15.932Z,73.83
2018-03-14T12:42:43.451Z,74.33
2018-03-14T12:45:10.956Z,74.33
2018-03-14T12:47:38.702Z,73.83
2018-03-14T12:50:06.225Z,74.10
2018-03-14T12:52:33.778Z,73.74
2018-03-14T12:55:01.344Z,74.30
2018-03-14T12:57:28.860Z,73.33
2018-03-14T12:59:56.421Z,73.76
2018-03-14T13:02:23.984Z,73.78
2018-03-14T13:04:51.507Z,74.56
2018-03-14T13:07:19.014Z,74.25
2018-03-14T13:09:46.791Z,73.98
2018-03-14T13:12:14.634Z,74.07
2018-03-14T13:14:42.482Z,74.11
2018-03-14T13:17:10.010Z,73.80
2018-03-14T13:19:38.616Z,72.98
2018-03-14T13:22:06.128Z,73.14
2018-03-14T13:24:33.686Z,71.83
2018-03-14T13:27:01.211Z,71.64
2018-03-14T13:29:28.747Z,70.71
2018-03-14T13:31:56.443Z,69.70
2018-03-14T13:34:23.966Z,68.74
2018-03-14T13:36:51.762Z,69.09
2018-03-14T13:39:19.260Z,69.57
2018-03-14T13:41:46.813Z,69.29
2018-03-14T13:44:14.363Z,69.54
2018-03-14T13:46:41.932Z,69.78
2018-03-14T13:49:09.455Z,69.78
2018-03-14T13:51:37.222Z,69.85
2018-03-14T13:54:04.795Z,70.16
2018-03-14T13:56:32.332Z,70.49
2018-03-14T13:59:00.078Z,70.12
2018-03-14T14:01:27.786Z,70.16
2018-03-14T14:03:55.471Z,70.01
2018-03-14T14:06:23.055Z,68.74
2018-03-14T14:08:52.202Z,68.32
2018-03-14T14:11:19.819Z,67.48
2018-03-14T14:13:47.460Z,67.33
2018-03-14T14:16:15.249Z,66.48
2018-03-14T14:18:43.061Z,66.81
2018-03-14T14:21:10.757Z,66.82
2018-03-14T14:23:38.269Z,66.97
2018-03-14T14:26:05.899Z,67.01
2018-03-14T14:28:33.412Z,67.23
2018-03-14T14:31:00.939Z,66.89
2018-03-14T14:33:28.479Z,67.18
2018-03-14T14:35:56.057Z,67.44
2018-03-14T14:38:23.591Z,68.18
2018-03-14T14:40:51.107Z,67.55
2018-03-14T14:43:18.641Z,66.73
2018-03-14T14:45:46.142Z,66.67
2018-03-14T14:48:13.668Z,66.29
2018-03-14T14:50:41.390Z,65.68
2018-03-14T14:53:08.918Z,65.45
2018-03-14T14:55:36.465Z,65.27
2018-03-14T14:58:03.962Z,66.00
2018-03-14T15:00:31.477Z,66.05
2018-03-14T15:02:59.026Z,65.65
2018-03-14T15:05:26.546Z,65.82
2018-03-14T15:07:54.075Z,65.91
2018-03-14T15:10:21.878Z,65.99
2018-03-14T15:12:49.396Z,65.83
2018-03-14T15:15:17.037Z,64.69
2018-03-14T15:17:44.569Z,65.04
2018-03-14T15:20:12.131Z,65.13
2018-03-14T15:22:39.668Z,65.30
2018-03-14T15:25:07.221Z,64.54
2018-03-14T15:27:34.756Z,64.77
2018-03-14T15:30:02.299Z,64.97
2018-03-14T15:32:29.955Z,65.43
2018-03-14T15:34:57.524Z,65.33
2018-03-14T15:37:25.114Z,65.11
2018-03-14T15:39:52.652Z,65.46
2018-03-14T15:42:20.244Z,64.80
2018-03-14T15:44:47.801Z,64.04
2018-03-14T15:47:15.314Z,63.34
2018-03-14T15:49:43.110Z,63.34
2018-03-14T15:52:10.640Z,63.63
2018-03-14T15:54:38.531Z,63.32
2018-03-14T15:57:06.144Z,63.97
2018-03-14T15:59:33.711Z,64.71
2018-03-14T16:02:01.271Z,65.55
2018-03-14T16:04:28.816Z,65.68
2018-03-14T16:06:56.335Z,66.54
2018-03-14T16:09:24.035Z,66.65
2018-03-14T16:11:51.540Z,66.70
2018-03-14T16:14:19.096Z,66.87
2018-03-14T16:16:46.626Z,66.70
2018-03-14T16:19:14.307Z,66.55
2018-03-14T16:21:42.108Z,66.96
2018-03-14T16:24:09.633Z,66.36
2018-03-14T16:26:37.219Z,66.50
2018-03-14T16:29:04.750Z,66.72
2018-03-14T16:31:32.280Z,67.12
2018-03-14T16:33:59.910Z,67.45
2018-03-14T16:36:27.425Z,67.71
2018-03-14T16:38:54.960Z,68.54
2018-03-14T16:41:22.527Z,69.12
2018-03-14T16:43:50.040Z,69.02
2018-03-14T16:46:17.599Z,69.70
2018-03-14T16:48:45.136Z,69.65
2018-03-14T16:51:12.659Z,69.82
2018-03-14T16:53:40.179Z,70.74
2018-03-14T16:56:07.688Z,71.64
2018-03-14T16:58:35.262Z,71.97
2018-03-14T17:01:02.831Z,72.12
2018-03-14T17:03:30.333Z,72.27
2018-03-14T17:05:57.858Z,72.50
2018-03-14T17:08:25.363Z,72.50
2018-03-14T17:10:53.371Z,72.48
2018-03-14T17:13:21.240Z,72.38
2018-03-14T17:15:48.761Z,72.46
2018-03-14T17:18:16.315Z,72.59
2018-03-14T17:20:43.934Z,72.38
2018-03-14T17:23:11.539Z,72.25
2018-03-14T17:25:39.092Z,72.65
2018-03-14T17:28:06.631Z,73.19
2018-03-14T17:30:34.420Z,73.51
2018-03-14T17:33:02.012Z,73.82
2018-03-14T17:35:29.550Z,73.83
2018-03-14T17:37:57.055Z,74.05
2018-03-14T17:40:24.580Z,74.15
2018-03-14T17:42:52.079Z,73.98
2018-03-14T17:45:19.745Z,73.79
2018-03-14T17:47:47.324Z,74.03
2018-03-14T17:50:14.843Z,73.78
2018-03-14T17:52:42.376Z,73.71
2018-03-14T17:55:09.981Z,73.45
2018-03-14T17:57:37.669Z,73.68
2018-03-14T18:00:05.261Z,73.95
2018-03-14T18:02:32.780Z,74.11
2018-03-14T18:05:00.380Z,74.06
2018-03-14T18:07:28.141Z,73.85
2018-03-14T18:09:56.236Z,74.30
2018-03-14T18:12:23.737Z,74.35
2018-03-14T18:14:51.405Z,74.45
2018-03-14T18:17:19.014Z,74.43
2018-03-14T18:19:46.576Z,74.65
2018-03-14T18:22:14.140Z,74.87
2018-03-14T18:24:41.678Z,74.63
2018-03-14T18:27:09.461Z,74.96
2018-03-14T18:29:37.027Z,74.83
2018-03-14T18:32:04.881Z,74.51
2018-03-14T18:34:33.378Z,74.62
2018-03-14T18:37:01.198Z,74.57
2018-03-14T18:39:28.711Z,75.29
2018-03-14T18:41:56.247Z,75.58
2018-03-14T18:44:24.015Z,75.86
2018-03-14T18:46:51.609Z,76.28
2018-03-14T18:49:19.151Z,76.33
2018-03-14T18:51:46.667Z,76.85
2018-03-14T18:54:14.249Z,77.10
2018-03-14T18:56:41.754Z,77.07
2018-03-14T18:59:09.391Z,77.35
2018-03-14T19:01:37.139Z,77.19
2018-03-14T19:04:04.665Z,77.00
2018-03-14T19:06:32.202Z,76.62
2018-03-14T19:08:59.980Z,76.52
2018-03-14T19:11:27.600Z,76.49
2018-03-14T19:13:55.120Z,76.00
2018-03-14T19:16:22.626Z,75.95
2018-03-14T19:18:50.154Z,75.77
2018-03-14T19:21:17.664Z,75.59
2018-03-14T19:23:45.196Z,75.99
2018-03-14T19:26:12.724Z,76.14
2018-03-14T19:28:40.224Z,76.41
2018-03-14T19:31:07.741Z,76.31
2018-03-14T19:33:35.264Z,76.15
2018-03-14T19:36:02.799Z,75.91
2018-03-14T19:38:30.317Z,75.86
2018-03-14T19:40:57.816Z,75.60
2018-03-14T19:43:25.338Z,76.03
2018-03-14T19:45:52.822Z,76.11
2018-03-14T19:48:20.363Z,76.43
2018-03-14T19:50:48.679Z,76.18
2018-03-14T19:53:16.233Z,75.45
2018-03-14T19:55:43.806Z,75.37
2018-03-14T19:58:11.464Z,75.25
2018-03-14T20:00:39.113Z,75.61
2018-03-14T20:03:06.660Z,75.21
2018-03-14T20:05:34.192Z,75.20
2018-03-14T20:08:01.737Z,75.05
2018-03-14T20:10:29.243Z,74.99
2018-03-14T20:12:56.788Z,75.25
2018-03-14T20:15:24.297Z,75.09
2018-03-14T20:17:51.884Z,74.91
2018-03-14T20:20:21.168Z,75.10
2018-03-14T20:22:49.178Z,75.00
2018-03-14T20:25:16.913Z,74.64
2018-03-14T20:27:44.421Z,74.98
2018-03-14T20:30:19.220Z,74.89
2018-03-14T20:32:46.727Z,74.53
2018-03-14T20:35:14.255Z,74.92
2018-03-14T20:37:41.788Z,74.38
2018-03-14T20:40:10.783Z,73.55
2018-03-14T20:42:38.309Z,73.87
2018-03-14T20:45:06.023Z,73.10
2018-03-14T20:47:33.610Z,72.85
2018-03-14T20:50:01.334Z,72.98
2018-03-14T20:52:29.050Z,73.10
2018-03-14T20:54:56.932Z,73.57
2018-03-14T20:57:24.589Z,73.52
2018-03-14T20:59:52.128Z,73.38
2018-03-14T21:02:20.031Z,73.82
2018-03-14T21:04:47.577Z,74.14
2018-03-14T21:07:15.092Z,74.36
2018-03-14T21:09:42.624Z,74.62
2018-03-14T21:12:10.186Z,74.13
2018-03-14T21:14:38.212Z,73.83
2018-03-14T21:17:05.927Z,73.62
2018-03-14T21:19:36.381Z,73.95
2018-03-14T21:22:04.480Z,73.16
2018-03-14T21:24:32.112Z,73.23
2018-03-14T21:26:59.665Z,73.33
2018-03-14T21:29:27.260Z,73.70
2018-03-14T21:31:54.795Z,73.71
2018-03-14T21:34:22.401Z,73.66
2018-03-14T21:36:50.028Z,73.54
2018-03-14T21:39:17.682Z,73.24
2018-03-14T21:41:45.100Z,73.38
2018-03-14T21:44:13.104Z,73.16
2018-03-14T21:46:40.712Z,73.51
2018-03-14T21:49:08.252Z,73.79
2018-03-14T21:51:35.760Z,73.46
2018-03-14T21:54:03.319Z,73.67
2018-03-14T21:56:30.971Z,73.86
2018-03-14T21:58:58.515Z,74.09
2018-03-14T22:01:26.043Z,74.33
2018-03-14T22:03:53.596Z,74.21
2018-03-14T22:06:21.520Z,74.32
2018-03-14T22:08:49.001Z,74.66
2018-03-14T22:11:16.573Z,74.73
2018-03-14T22:13:44.104Z,74.25
2018-03-14T22:16:12.322Z,74.04
2018-03-14T22:18:39.847Z,73.76
2018-03-14T22:21:07.398Z,73.64
2018-03-14T22:23:34.972Z,73.40
2018-03-14T22:26:02.538Z,73.20
2018-03-14T22:28:30.104Z,73.47
2018-03-14T22:30:57.649Z,73.85
2018-03-14T22:33:25.177Z,73.55
2018-03-14T22:35:52.699Z,73.25
2018-03-14T22:38:20.220Z,73.34
2018-03-14T22:40:47.749Z,73.43
2018-03-14T22:43:15.256Z,73.53
2018-03-14T22:45:42.836Z,73.74
2018-03-14T22:48:10.375Z,73.74
2018-03-14T22:50:37.914Z,73.51
2018-03-14T22:53:05.580Z,73.56
2018-03-14T22:55:33.276Z,73.89
2018-03-14T22:58:00.871Z,74.01
2018-03-14T23:00:28.381Z,74.22
2018-03-14T23:02:55.964Z,74.35
2018-03-14T23:05:23.488Z,74.30
2018-03-14T23:07:51.007Z,74.24
2018-03-14T23:10:18.535Z,74.48
2018-03-14T23:12:46.051Z,74.92
2018-03-14T23:15:13.672Z,75.10
2018-03-14T23:17:41.173Z,75.08
2018-03-14T23:20:08.704Z,74.88
2018-03-14T23:22:36.489Z,75.00
2018-03-14T23:25:04.063Z,75.06
2018-03-14T23:27:31.574Z,74.89
2018-03-14T23:29:59.172Z,74.76
2018-03-14T23:32:27.044Z,74.90
2018-03-14T23:34:54.579Z,75.34
2018-03-14T23:37:22.092Z,75.19
2018-03-14T23:39:49.670Z,75.11
2018-03-14T23:42:17.205Z,75.18
2018-03-14T23:44:44.723Z,74.83
2018-03-14T23:47:12.385Z,74.52
2018-03-14T23:49:39.868Z,74.49
2018-03-14T23:52:07.412Z,74.89
2018-03-14T23:54:34.925Z,74.75
2018-03-14T23:57:02.758Z,74.45
2018-03-14T23:59:30.292Z,74.84
